sensor_id;sensor_type;location;lat;lon;timestamp;temperature;humidity
11989;DHT22;6054;50.966;7.094;2023-03-31T00:01:21;20.30;48.20
11989;DHT22;6054;50.966;7.094;2023-03-31T00:03:50;20.30;48.20
11989;DHT22;6054;50.966;7.094;2023-03-31T00:06:17;20.30;48.20
11989;DHT22;6054;50.966;7.094;2023-03-31T00:08:44;20.30;48.20
11989;DHT22;6054;50.966;7.094;2023-03-31T00:11:11;20.30;48.30
11989;DHT22;6054;50.966;7.094;2023-03-31T00:13:39;20.30;48.40
11989;DHT22;6054;50.966;7.094;2023-03-31T00:16:07;20.30;48.30
11989;DHT22;6054;50.966;7.094;2023-03-31T00:18:35;20.30;48.50
11989;DHT22;6054;50.966;7.094;2023-03-31T00:21:07;20.30;48.60
11989;DHT22;6054;50.966;7.094;2023-03-31T00:23:34;20.30;48.60
11989;DHT22;6054;50.966;7.094;2023-03-31T00:26:00;20.30;48.60
11989;DHT22;6054;50.966;7.094;2023-03-31T00:28:27;20.30;48.60
11989;DHT22;6054;50.966;7.094;2023-03-31T00:31:00;20.30;48.90
11989;DHT22;6054;50.966;7.094;2023-03-31T00:33:27;20.30;49.40
11989;DHT22;6054;50.966;7.094;2023-03-31T00:35:55;20.20;49.40
11989;DHT22;6054;50.966;7.094;2023-03-31T00:38:22;20.20;49.30
11989;DHT22;6054;50.966;7.094;2023-03-31T00:40:49;20.20;49.30
11989;DHT22;6054;50.966;7.094;2023-03-31T00:43:27;20.20;49.50
11989;DHT22;6054;50.966;7.094;2023-03-31T00:46:03;20.20;49.90
11989;DHT22;6054;50.966;7.094;2023-03-31T00:48:32;20.20;50.00
11989;DHT22;6054;50.966;7.094;2023-03-31T00:51:03;20.20;50.00
11989;DHT22;6054;50.966;7.094;2023-03-31T00:53:32;20.20;50.00
11989;DHT22;6054;50.966;7.094;2023-03-31T00:56:03;20.20;50.10
11989;DHT22;6054;50.966;7.094;2023-03-31T00:58:32;20.20;50.20
11989;DHT22;6054;50.966;7.094;2023-03-31T01:01:00;20.20;50.00
11989;DHT22;6054;50.966;7.094;2023-03-31T01:03:30;20.20;50.20
11989;DHT22;6054;50.966;7.094;2023-03-31T01:06:01;20.20;50.30
11989;DHT22;6054;50.966;7.094;2023-03-31T01:08:30;20.10;50.20
11989;DHT22;6054;50.966;7.094;2023-03-31T01:10:59;20.10;50.30
11989;DHT22;6054;50.966;7.094;2023-03-31T01:13:28;20.10;50.40
11989;DHT22;6054;50.966;7.094;2023-03-31T01:15:55;20.10;50.40
11989;DHT22;6054;50.966;7.094;2023-03-31T01:18:22;20.10;50.20
11989;DHT22;6054;50.966;7.094;2023-03-31T01:24:05;20.10;50.60
11989;DHT22;6054;50.966;7.094;2023-03-31T01:27:04;20.10;50.50
11989;DHT22;6054;50.966;7.094;2023-03-31T01:29:49;20.00;50.40
11989;DHT22;6054;50.966;7.094;2023-03-31T01:32:58;20.00;50.40
11989;DHT22;6054;50.966;7.094;2023-03-31T01:35:45;20.00;50.50
11989;DHT22;6054;50.966;7.094;2023-03-31T01:38:57;19.90;50.50
11989;DHT22;6054;50.966;7.094;2023-03-31T01:41:41;19.90;50.60
11989;DHT22;6054;50.966;7.094;2023-03-31T01:44:18;19.90;50.60
11989;DHT22;6054;50.966;7.094;2023-03-31T01:46:52;19.90;50.60
11989;DHT22;6054;50.966;7.094;2023-03-31T01:49:24;19.80;50.60
11989;DHT22;6054;50.966;7.094;2023-03-31T01:51:58;19.80;50.60
11989;DHT22;6054;50.966;7.094;2023-03-31T01:54:31;19.80;50.60
11989;DHT22;6054;50.966;7.094;2023-03-31T01:57:04;19.80;50.80
11989;DHT22;6054;50.966;7.094;2023-03-31T01:59:37;19.80;50.80
11989;DHT22;6054;50.966;7.094;2023-03-31T02:02:08;19.80;50.80
11989;DHT22;6054;50.966;7.094;2023-03-31T02:04:40;19.80;50.80
11989;DHT22;6054;50.966;7.094;2023-03-31T02:07:13;19.80;50.90
11989;DHT22;6054;50.966;7.094;2023-03-31T02:09:45;19.80;51.00
11989;DHT22;6054;50.966;7.094;2023-03-31T02:12:18;19.80;51.00
11989;DHT22;6054;50.966;7.094;2023-03-31T02:14:49;19.80;51.10
11989;DHT22;6054;50.966;7.094;2023-03-31T02:17:19;19.90;51.20
11989;DHT22;6054;50.966;7.094;2023-03-31T02:19:49;19.80;51.40
11989;DHT22;6054;50.966;7.094;2023-03-31T02:22:18;19.80;51.60
11989;DHT22;6054;50.966;7.094;2023-03-31T02:24:48;19.80;51.70
11989;DHT22;6054;50.966;7.094;2023-03-31T02:27:20;19.70;51.80
11989;DHT22;6054;50.966;7.094;2023-03-31T02:29:48;19.70;51.80
11989;DHT22;6054;50.966;7.094;2023-03-31T02:32:19;19.70;51.90
11989;DHT22;6054;50.966;7.094;2023-03-31T02:34:48;19.70;52.10
11989;DHT22;6054;50.966;7.094;2023-03-31T02:37:14;19.70;51.80
11989;DHT22;6054;50.966;7.094;2023-03-31T02:39:44;19.60;51.90
11989;DHT22;6054;50.966;7.094;2023-03-31T02:42:11;19.60;52.40
11989;DHT22;6054;50.966;7.094;2023-03-31T02:44:39;19.60;52.30
11989;DHT22;6054;50.966;7.094;2023-03-31T02:47:08;19.50;52.40
11989;DHT22;6054;50.966;7.094;2023-03-31T02:49:37;19.50;53.60
11989;DHT22;6054;50.966;7.094;2023-03-31T02:52:15;19.40;53.20
11989;DHT22;6054;50.966;7.094;2023-03-31T02:55:14;19.40;53.60
11989;DHT22;6054;50.966;7.094;2023-03-31T02:58:07;19.40;53.90
11989;DHT22;6054;50.966;7.094;2023-03-31T03:00:53;19.30;54.10
11989;DHT22;6054;50.966;7.094;2023-03-31T03:03:28;19.30;54.30
11989;DHT22;6054;50.966;7.094;2023-03-31T03:06:04;19.30;54.40
11989;DHT22;6054;50.966;7.094;2023-03-31T03:08:46;19.20;54.60
11989;DHT22;6054;50.966;7.094;2023-03-31T03:11:23;19.20;54.80
11989;DHT22;6054;50.966;7.094;2023-03-31T03:13:54;19.20;55.00
11989;DHT22;6054;50.966;7.094;2023-03-31T03:16:26;19.20;55.20
11989;DHT22;6054;50.966;7.094;2023-03-31T03:18:56;19.20;55.40
11989;DHT22;6054;50.966;7.094;2023-03-31T03:21:23;19.10;55.40
11989;DHT22;6054;50.966;7.094;2023-03-31T03:23:50;19.10;54.80
11989;DHT22;6054;50.966;7.094;2023-03-31T03:26:17;19.10;55.20
11989;DHT22;6054;50.966;7.094;2023-03-31T03:28:46;19.10;55.30
11989;DHT22;6054;50.966;7.094;2023-03-31T03:31:13;19.10;54.60
11989;DHT22;6054;50.966;7.094;2023-03-31T03:33:43;19.10;55.30
11989;DHT22;6054;50.966;7.094;2023-03-31T03:36:10;19.00;54.80
11989;DHT22;6054;50.966;7.094;2023-03-31T03:38:36;19.10;54.40
11989;DHT22;6054;50.966;7.094;2023-03-31T03:41:03;19.00;55.10
11989;DHT22;6054;50.966;7.094;2023-03-31T03:43:30;19.10;55.50
11989;DHT22;6054;50.966;7.094;2023-03-31T03:45:57;19.00;54.80
11989;DHT22;6054;50.966;7.094;2023-03-31T03:48:24;19.00;55.50
11989;DHT22;6054;50.966;7.094;2023-03-31T03:50:52;19.00;55.50
11989;DHT22;6054;50.966;7.094;2023-03-31T03:53:20;19.00;55.10
11989;DHT22;6054;50.966;7.094;2023-03-31T03:55:47;19.00;55.90
11989;DHT22;6054;50.966;7.094;2023-03-31T03:58:14;19.00;56.10
11989;DHT22;6054;50.966;7.094;2023-03-31T04:00:41;18.90;56.00
11989;DHT22;6054;50.966;7.094;2023-03-31T04:03:09;18.90;55.80
11989;DHT22;6054;50.966;7.094;2023-03-31T04:05:36;18.90;55.80
11989;DHT22;6054;50.966;7.094;2023-03-31T04:08:05;18.90;55.90
11989;DHT22;6054;50.966;7.094;2023-03-31T04:10:33;18.90;56.10
11989;DHT22;6054;50.966;7.094;2023-03-31T04:13:00;18.90;56.20
11989;DHT22;6054;50.966;7.094;2023-03-31T04:15:27;18.90;55.70
11989;DHT22;6054;50.966;7.094;2023-03-31T04:17:54;18.90;56.10
11989;DHT22;6054;50.966;7.094;2023-03-31T04:20:22;18.90;55.70
11989;DHT22;6054;50.966;7.094;2023-03-31T04:22:52;18.90;56.50
11989;DHT22;6054;50.966;7.094;2023-03-31T04:25:20;18.90;56.40
11989;DHT22;6054;50.966;7.094;2023-03-31T04:27:49;19.10;56.20
11989;DHT22;6054;50.966;7.094;2023-03-31T04:30:19;18.80;56.60
11989;DHT22;6054;50.966;7.094;2023-03-31T04:32:49;18.80;56.60
11989;DHT22;6054;50.966;7.094;2023-03-31T04:35:16;18.70;56.50
11989;DHT22;6054;50.966;7.094;2023-03-31T04:37:45;18.70;56.40
11989;DHT22;6054;50.966;7.094;2023-03-31T04:40:12;18.70;56.70
11989;DHT22;6054;50.966;7.094;2023-03-31T04:42:42;18.60;56.10
11989;DHT22;6054;50.966;7.094;2023-03-31T04:45:09;18.50;55.90
11989;DHT22;6054;50.966;7.094;2023-03-31T04:47:37;18.50;56.40
11989;DHT22;6054;50.966;7.094;2023-03-31T04:50:05;18.40;56.40
11989;DHT22;6054;50.966;7.094;2023-03-31T04:52:32;18.40;56.70
11989;DHT22;6054;50.966;7.094;2023-03-31T04:54:58;18.40;55.60
11989;DHT22;6054;50.966;7.094;2023-03-31T04:57:25;18.30;56.40
11989;DHT22;6054;50.966;7.094;2023-03-31T04:59:53;18.50;56.90
11989;DHT22;6054;50.966;7.094;2023-03-31T05:02:20;18.30;56.60
11989;DHT22;6054;50.966;7.094;2023-03-31T05:04:48;18.30;56.20
11989;DHT22;6054;50.966;7.094;2023-03-31T05:07:15;18.20;56.60
11989;DHT22;6054;50.966;7.094;2023-03-31T05:09:42;18.20;56.50
11989;DHT22;6054;50.966;7.094;2023-03-31T05:12:09;18.20;57.30
11989;DHT22;6054;50.966;7.094;2023-03-31T05:14:36;18.20;56.60
11989;DHT22;6054;50.966;7.094;2023-03-31T05:17:04;18.20;56.60
11989;DHT22;6054;50.966;7.094;2023-03-31T05:19:31;18.20;56.30
11989;DHT22;6054;50.966;7.094;2023-03-31T05:21:57;18.20;56.60
11989;DHT22;6054;50.966;7.094;2023-03-31T05:24:24;18.20;57.20
11989;DHT22;6054;50.966;7.094;2023-03-31T05:26:53;18.40;56.50
11989;DHT22;6054;50.966;7.094;2023-03-31T05:29:20;18.10;56.40
11989;DHT22;6054;50.966;7.094;2023-03-31T05:31:47;18.30;56.90
11989;DHT22;6054;50.966;7.094;2023-03-31T05:34:16;18.10;56.90
11989;DHT22;6054;50.966;7.094;2023-03-31T05:36:44;18.10;56.50
11989;DHT22;6054;50.966;7.094;2023-03-31T05:39:12;18.10;57.10
11989;DHT22;6054;50.966;7.094;2023-03-31T05:41:39;18.10;56.60
11989;DHT22;6054;50.966;7.094;2023-03-31T05:44:06;18.10;56.40
11989;DHT22;6054;50.966;7.094;2023-03-31T05:46:33;18.20;56.50
11989;DHT22;6054;50.966;7.094;2023-03-31T05:49:01;18.10;56.90
11989;DHT22;6054;50.966;7.094;2023-03-31T05:51:29;18.30;56.80
11989;DHT22;6054;50.966;7.094;2023-03-31T05:53:56;18.00;56.20
11989;DHT22;6054;50.966;7.094;2023-03-31T05:56:23;18.10;56.40
11989;DHT22;6054;50.966;7.094;2023-03-31T05:58:51;18.20;56.40
11989;DHT22;6054;50.966;7.094;2023-03-31T06:01:18;18.10;56.20
11989;DHT22;6054;50.966;7.094;2023-03-31T06:03:47;18.30;56.80
11989;DHT22;6054;50.966;7.094;2023-03-31T06:06:15;18.10;56.80
11989;DHT22;6054;50.966;7.094;2023-03-31T06:08:44;18.10;56.80
11989;DHT22;6054;50.966;7.094;2023-03-31T06:11:13;18.20;57.20
11989;DHT22;6054;50.966;7.094;2023-03-31T06:13:41;18.10;57.50
11989;DHT22;6054;50.966;7.094;2023-03-31T06:16:09;18.10;57.50
11989;DHT22;6054;50.966;7.094;2023-03-31T06:18:37;18.20;57.40
11989;DHT22;6054;50.966;7.094;2023-03-31T06:21:05;18.10;57.20
11989;DHT22;6054;50.966;7.094;2023-03-31T06:23:32;18.10;57.20
11989;DHT22;6054;50.966;7.094;2023-03-31T06:26:02;18.10;57.10
11989;DHT22;6054;50.966;7.094;2023-03-31T06:28:29;18.10;57.30
11989;DHT22;6054;50.966;7.094;2023-03-31T06:31:00;18.10;57.20
11989;DHT22;6054;50.966;7.094;2023-03-31T06:33:29;18.10;57.50
11989;DHT22;6054;50.966;7.094;2023-03-31T06:35:56;18.20;56.70
11989;DHT22;6054;50.966;7.094;2023-03-31T06:38:24;18.10;56.40
11989;DHT22;6054;50.966;7.094;2023-03-31T06:40:51;18.20;57.90
11989;DHT22;6054;50.966;7.094;2023-03-31T06:43:19;18.20;56.70
11989;DHT22;6054;50.966;7.094;2023-03-31T06:45:46;18.20;56.80
11989;DHT22;6054;50.966;7.094;2023-03-31T06:48:13;18.30;56.80
11989;DHT22;6054;50.966;7.094;2023-03-31T06:50:40;18.30;56.70
11989;DHT22;6054;50.966;7.094;2023-03-31T06:53:08;18.50;56.90
11989;DHT22;6054;50.966;7.094;2023-03-31T06:55:35;18.20;57.00
11989;DHT22;6054;50.966;7.094;2023-03-31T06:58:02;18.20;57.40
11989;DHT22;6054;50.966;7.094;2023-03-31T07:00:31;18.20;57.10
11989;DHT22;6054;50.966;7.094;2023-03-31T07:02:58;18.20;57.50
11989;DHT22;6054;50.966;7.094;2023-03-31T07:05:25;18.40;57.10
11989;DHT22;6054;50.966;7.094;2023-03-31T07:07:53;18.20;57.30
11989;DHT22;6054;50.966;7.094;2023-03-31T07:10:20;18.30;57.20
11989;DHT22;6054;50.966;7.094;2023-03-31T07:12:48;18.30;57.20
11989;DHT22;6054;50.966;7.094;2023-03-31T07:15:15;18.50;57.30
11989;DHT22;6054;50.966;7.094;2023-03-31T07:17:43;18.30;57.20
11989;DHT22;6054;50.966;7.094;2023-03-31T07:20:12;18.30;57.20
11989;DHT22;6054;50.966;7.094;2023-03-31T07:22:40;18.30;57.00
11989;DHT22;6054;50.966;7.094;2023-03-31T07:25:07;18.30;56.60
11989;DHT22;6054;50.966;7.094;2023-03-31T07:27:35;18.40;57.10
11989;DHT22;6054;50.966;7.094;2023-03-31T07:30:02;18.40;56.70
11989;DHT22;6054;50.966;7.094;2023-03-31T07:32:29;18.70;57.10
11989;DHT22;6054;50.966;7.094;2023-03-31T07:34:59;18.40;55.80
11989;DHT22;6054;50.966;7.094;2023-03-31T07:37:25;18.40;55.70
11989;DHT22;6054;50.966;7.094;2023-03-31T07:39:52;18.40;55.50
11989;DHT22;6054;50.966;7.094;2023-03-31T07:42:19;18.40;56.10
11989;DHT22;6054;50.966;7.094;2023-03-31T07:44:46;18.50;55.50
11989;DHT22;6054;50.966;7.094;2023-03-31T07:47:12;18.50;55.30
11989;DHT22;6054;50.966;7.094;2023-03-31T07:49:39;18.50;56.00
11989;DHT22;6054;50.966;7.094;2023-03-31T07:52:08;18.50;55.60
11989;DHT22;6054;50.966;7.094;2023-03-31T07:54:34;18.80;56.00
11989;DHT22;6054;50.966;7.094;2023-03-31T07:57:02;18.60;55.90
11989;DHT22;6054;50.966;7.094;2023-03-31T07:59:30;18.50;56.40
11989;DHT22;6054;50.966;7.094;2023-03-31T08:01:57;18.60;55.50
11989;DHT22;6054;50.966;7.094;2023-03-31T08:04:24;18.60;55.50
11989;DHT22;6054;50.966;7.094;2023-03-31T08:06:51;18.70;55.10
11989;DHT22;6054;50.966;7.094;2023-03-31T08:09:19;18.70;55.30
11989;DHT22;6054;50.966;7.094;2023-03-31T08:11:46;18.80;55.20
11989;DHT22;6054;50.966;7.094;2023-03-31T08:14:14;18.90;55.70
11989;DHT22;6054;50.966;7.094;2023-03-31T08:16:41;18.90;55.30
11989;DHT22;6054;50.966;7.094;2023-03-31T08:19:07;18.90;55.40
11989;DHT22;6054;50.966;7.094;2023-03-31T08:21:34;19.00;55.40
11989;DHT22;6054;50.966;7.094;2023-03-31T08:24:01;19.00;55.40
11989;DHT22;6054;50.966;7.094;2023-03-31T08:26:29;19.20;55.30
11989;DHT22;6054;50.966;7.094;2023-03-31T08:28:57;19.10;54.90
11989;DHT22;6054;50.966;7.094;2023-03-31T08:31:24;19.20;55.30
11989;DHT22;6054;50.966;7.094;2023-03-31T08:33:53;19.20;55.20
11989;DHT22;6054;50.966;7.094;2023-03-31T08:36:20;19.30;55.80
11989;DHT22;6054;50.966;7.094;2023-03-31T08:38:47;19.30;56.10
11989;DHT22;6054;50.966;7.094;2023-03-31T08:41:32;19.40;55.10
11989;DHT22;6054;50.966;7.094;2023-03-31T08:44:05;19.50;56.00
11989;DHT22;6054;50.966;7.094;2023-03-31T08:46:33;19.50;55.90
11989;DHT22;6054;50.966;7.094;2023-03-31T08:49:02;19.90;56.50
11989;DHT22;6054;50.966;7.094;2023-03-31T08:51:31;19.70;55.70
11989;DHT22;6054;50.966;7.094;2023-03-31T08:54:01;20.00;55.10
11989;DHT22;6054;50.966;7.094;2023-03-31T08:56:29;19.80;55.40
11989;DHT22;6054;50.966;7.094;2023-03-31T08:59:00;20.10;55.90
11989;DHT22;6054;50.966;7.094;2023-03-31T09:01:35;19.90;54.70
11989;DHT22;6054;50.966;7.094;2023-03-31T09:04:14;19.90;54.40
11989;DHT22;6054;50.966;7.094;2023-03-31T09:06:51;20.00;54.60
11989;DHT22;6054;50.966;7.094;2023-03-31T09:09:31;20.10;54.90
11989;DHT22;6054;50.966;7.094;2023-03-31T09:12:04;20.30;55.30
11989;DHT22;6054;50.966;7.094;2023-03-31T09:14:37;20.30;54.70
11989;DHT22;6054;50.966;7.094;2023-03-31T09:17:17;20.50;54.60
11989;DHT22;6054;50.966;7.094;2023-03-31T09:19:49;20.50;53.80
11989;DHT22;6054;50.966;7.094;2023-03-31T09:22:22;20.60;54.60
11989;DHT22;6054;50.966;7.094;2023-03-31T09:24:54;20.70;53.50
11989;DHT22;6054;50.966;7.094;2023-03-31T09:27:23;20.80;54.10
11989;DHT22;6054;50.966;7.094;2023-03-31T09:29:55;20.90;53.20
11989;DHT22;6054;50.966;7.094;2023-03-31T09:32:25;21.00;52.90
11989;DHT22;6054;50.966;7.094;2023-03-31T09:34:56;21.00;53.00
11989;DHT22;6054;50.966;7.094;2023-03-31T09:37:29;21.10;53.10
11989;DHT22;6054;50.966;7.094;2023-03-31T09:39:57;21.20;53.60
11989;DHT22;6054;50.966;7.094;2023-03-31T09:42:25;21.30;52.90
11989;DHT22;6054;50.966;7.094;2023-03-31T09:44:53;21.40;52.00
11989;DHT22;6054;50.966;7.094;2023-03-31T09:47:27;21.40;51.60
11989;DHT22;6054;50.966;7.094;2023-03-31T09:49:55;21.40;50.90
11989;DHT22;6054;50.966;7.094;2023-03-31T09:52:26;21.70;50.60
11989;DHT22;6054;50.966;7.094;2023-03-31T09:54:57;21.40;51.00
11989;DHT22;6054;50.966;7.094;2023-03-31T09:57:26;21.40;51.50
11989;DHT22;6054;50.966;7.094;2023-03-31T10:00:04;21.30;51.50
11989;DHT22;6054;50.966;7.094;2023-03-31T10:02:41;21.20;52.60
11989;DHT22;6054;50.966;7.094;2023-03-31T10:05:24;21.40;52.20
11989;DHT22;6054;50.966;7.094;2023-03-31T10:08:22;21.10;52.10
11989;DHT22;6054;50.966;7.094;2023-03-31T10:10:51;21.10;52.00
11989;DHT22;6054;50.966;7.094;2023-03-31T10:13:21;21.00;52.10
11989;DHT22;6054;50.966;7.094;2023-03-31T10:15:53;21.00;52.10
11989;DHT22;6054;50.966;7.094;2023-03-31T10:18:31;21.10;52.00
11989;DHT22;6054;50.966;7.094;2023-03-31T10:20:59;21.10;51.90
11989;DHT22;6054;50.966;7.094;2023-03-31T10:23:28;21.20;51.50
11989;DHT22;6054;50.966;7.094;2023-03-31T10:25:55;21.30;51.10
11989;DHT22;6054;50.966;7.094;2023-03-31T10:28:22;21.30;49.00
11989;DHT22;6054;50.966;7.094;2023-03-31T10:30:52;21.30;48.60
11989;DHT22;6054;50.966;7.094;2023-03-31T10:33:22;21.30;48.80
11989;DHT22;6054;50.966;7.094;2023-03-31T10:35:54;21.30;48.00
11989;DHT22;6054;50.966;7.094;2023-03-31T10:38:26;21.40;48.00
11989;DHT22;6054;50.966;7.094;2023-03-31T10:40:56;21.40;46.90
11989;DHT22;6054;50.966;7.094;2023-03-31T10:43:28;21.40;47.70
11989;DHT22;6054;50.966;7.094;2023-03-31T10:45:58;21.50;47.40
11989;DHT22;6054;50.966;7.094;2023-03-31T10:48:27;21.50;48.20
11989;DHT22;6054;50.966;7.094;2023-03-31T10:50:57;21.70;48.50
11989;DHT22;6054;50.966;7.094;2023-03-31T10:53:24;21.70;47.90
11989;DHT22;6054;50.966;7.094;2023-03-31T10:56:02;21.80;46.50
11989;DHT22;6054;50.966;7.094;2023-03-31T10:58:42;21.90;46.60
11989;DHT22;6054;50.966;7.094;2023-03-31T11:01:24;22.00;46.00
11989;DHT22;6054;50.966;7.094;2023-03-31T11:04:04;22.10;45.90
11989;DHT22;6054;50.966;7.094;2023-03-31T11:06:43;22.20;45.80
11989;DHT22;6054;50.966;7.094;2023-03-31T11:09:26;22.50;45.40
11989;DHT22;6054;50.966;7.094;2023-03-31T11:12:00;22.30;43.70
11989;DHT22;6054;50.966;7.094;2023-03-31T11:14:40;22.30;44.20
11989;DHT22;6054;50.966;7.094;2023-03-31T11:17:24;22.60;44.20
11989;DHT22;6054;50.966;7.094;2023-03-31T11:19:56;22.40;43.70
11989;DHT22;6054;50.966;7.094;2023-03-31T11:22:31;22.40;43.80
11989;DHT22;6054;50.966;7.094;2023-03-31T11:25:12;22.50;43.20
11989;DHT22;6054;50.966;7.094;2023-03-31T11:27:54;22.50;43.10
11989;DHT22;6054;50.966;7.094;2023-03-31T11:30:25;22.50;43.30
11989;DHT22;6054;50.966;7.094;2023-03-31T11:33:05;22.50;43.30
11989;DHT22;6054;50.966;7.094;2023-03-31T11:35:50;22.50;43.00
11989;DHT22;6054;50.966;7.094;2023-03-31T11:38:37;22.50;43.30
11989;DHT22;6054;50.966;7.094;2023-03-31T11:41:08;22.50;43.60
11989;DHT22;6054;50.966;7.094;2023-03-31T11:43:40;22.40;43.00
11989;DHT22;6054;50.966;7.094;2023-03-31T11:46:13;22.60;43.00
11989;DHT22;6054;50.966;7.094;2023-03-31T11:48:46;22.50;43.20
11989;DHT22;6054;50.966;7.094;2023-03-31T11:51:17;22.50;43.90
11989;DHT22;6054;50.966;7.094;2023-03-31T11:53:46;22.40;43.40
11989;DHT22;6054;50.966;7.094;2023-03-31T11:56:14;22.50;43.00
11989;DHT22;6054;50.966;7.094;2023-03-31T11:58:44;22.50;43.30
11989;DHT22;6054;50.966;7.094;2023-03-31T12:01:17;22.50;43.30
11989;DHT22;6054;50.966;7.094;2023-03-31T12:03:52;22.50;43.10
11989;DHT22;6054;50.966;7.094;2023-03-31T12:06:21;22.50;43.30
11989;DHT22;6054;50.966;7.094;2023-03-31T12:08:57;22.60;42.80
11989;DHT22;6054;50.966;7.094;2023-03-31T12:11:31;22.60;43.20
11989;DHT22;6054;50.966;7.094;2023-03-31T12:14:12;22.60;43.50
11989;DHT22;6054;50.966;7.094;2023-03-31T12:16:44;22.70;43.60
11989;DHT22;6054;50.966;7.094;2023-03-31T12:19:16;22.70;43.00
11989;DHT22;6054;50.966;7.094;2023-03-31T12:21:52;22.70;42.70
11989;DHT22;6054;50.966;7.094;2023-03-31T12:24:20;22.60;43.10
11989;DHT22;6054;50.966;7.094;2023-03-31T12:26:55;22.60;43.40
11989;DHT22;6054;50.966;7.094;2023-03-31T12:29:29;22.60;45.00
11989;DHT22;6054;50.966;7.094;2023-03-31T12:32:00;22.50;44.80
11989;DHT22;6054;50.966;7.094;2023-03-31T12:34:29;22.50;44.80
11989;DHT22;6054;50.966;7.094;2023-03-31T12:37:08;22.50;45.30
11989;DHT22;6054;50.966;7.094;2023-03-31T12:39:51;22.50;45.70
11989;DHT22;6054;50.966;7.094;2023-03-31T12:42:43;22.60;45.20
11989;DHT22;6054;50.966;7.094;2023-03-31T12:45:17;22.60;44.80
11989;DHT22;6054;50.966;7.094;2023-03-31T12:48:10;22.60;43.90
11989;DHT22;6054;50.966;7.094;2023-03-31T12:50:49;22.60;43.50
11989;DHT22;6054;50.966;7.094;2023-03-31T12:53:26;22.60;43.80
11989;DHT22;6054;50.966;7.094;2023-03-31T12:55:57;22.70;44.10
11989;DHT22;6054;50.966;7.094;2023-03-31T12:58:44;22.70;43.50
11989;DHT22;6054;50.966;7.094;2023-03-31T13:01:14;22.70;43.50
11989;DHT22;6054;50.966;7.094;2023-03-31T13:03:44;22.70;43.00
11989;DHT22;6054;50.966;7.094;2023-03-31T13:06:51;23.00;42.90
11989;DHT22;6054;50.966;7.094;2023-03-31T13:12:19;22.60;42.50
11989;DHT22;6054;50.966;7.094;2023-03-31T13:14:47;22.50;42.90
11989;DHT22;6054;50.966;7.094;2023-03-31T13:17:24;22.50;43.00
11989;DHT22;6054;50.966;7.094;2023-03-31T13:19:52;22.50;43.80
11989;DHT22;6054;50.966;7.094;2023-03-31T13:22:34;22.50;44.40
11989;DHT22;6054;50.966;7.094;2023-03-31T13:25:25;22.40;44.80
11989;DHT22;6054;50.966;7.094;2023-03-31T13:27:52;22.20;45.70
11989;DHT22;6054;50.966;7.094;2023-03-31T13:30:45;22.10;45.30
11989;DHT22;6054;50.966;7.094;2023-03-31T13:33:14;22.00;45.80
11989;DHT22;6054;50.966;7.094;2023-03-31T13:35:46;21.90;45.70
11989;DHT22;6054;50.966;7.094;2023-03-31T13:38:22;21.90;46.10
11989;DHT22;6054;50.966;7.094;2023-03-31T13:44:00;21.80;46.90
11989;DHT22;6054;50.966;7.094;2023-03-31T13:49:50;21.90;47.10
11989;DHT22;6054;50.966;7.094;2023-03-31T13:52:35;22.00;47.00
11989;DHT22;6054;50.966;7.094;2023-03-31T13:55:27;22.00;47.20
11989;DHT22;6054;50.966;7.094;2023-03-31T13:58:17;22.10;47.10
11989;DHT22;6054;50.966;7.094;2023-03-31T14:00:55;22.20;47.20
11989;DHT22;6054;50.966;7.094;2023-03-31T14:03:33;22.20;47.10
11989;DHT22;6054;50.966;7.094;2023-03-31T14:06:05;22.30;46.90
11989;DHT22;6054;50.966;7.094;2023-03-31T14:08:45;22.40;46.60
11989;DHT22;6054;50.966;7.094;2023-03-31T14:11:21;22.40;46.60
11989;DHT22;6054;50.966;7.094;2023-03-31T14:14:02;22.40;47.10
11989;DHT22;6054;50.966;7.094;2023-03-31T14:16:33;22.50;47.10
11989;DHT22;6054;50.966;7.094;2023-03-31T14:22:06;22.60;46.10
11989;DHT22;6054;50.966;7.094;2023-03-31T14:24:40;22.70;45.50
11989;DHT22;6054;50.966;7.094;2023-03-31T14:27:19;22.70;45.40
11989;DHT22;6054;50.966;7.094;2023-03-31T14:29:55;22.80;44.90
11989;DHT22;6054;50.966;7.094;2023-03-31T14:32:29;22.80;45.00
11989;DHT22;6054;50.966;7.094;2023-03-31T14:35:11;22.90;44.90
11989;DHT22;6054;50.966;7.094;2023-03-31T14:37:44;22.90;43.30
11989;DHT22;6054;50.966;7.094;2023-03-31T14:40:13;22.80;42.50
11989;DHT22;6054;50.966;7.094;2023-03-31T14:42:43;22.90;43.30
11989;DHT22;6054;50.966;7.094;2023-03-31T14:45:16;22.90;43.30
11989;DHT22;6054;50.966;7.094;2023-03-31T14:47:53;22.90;43.10
11989;DHT22;6054;50.966;7.094;2023-03-31T14:50:20;22.90;42.60
11989;DHT22;6054;50.966;7.094;2023-03-31T14:52:49;22.90;42.50
11989;DHT22;6054;50.966;7.094;2023-03-31T14:55:19;22.90;42.20
11989;DHT22;6054;50.966;7.094;2023-03-31T14:57:49;22.80;42.00
11989;DHT22;6054;50.966;7.094;2023-03-31T15:00:23;22.80;41.40
11989;DHT22;6054;50.966;7.094;2023-03-31T15:02:51;22.80;41.60
11989;DHT22;6054;50.966;7.094;2023-03-31T15:05:24;22.90;41.40
11989;DHT22;6054;50.966;7.094;2023-03-31T15:07:55;22.80;40.80
11989;DHT22;6054;50.966;7.094;2023-03-31T15:10:23;22.80;40.90
11989;DHT22;6054;50.966;7.094;2023-03-31T15:12:52;23.00;40.80
11989;DHT22;6054;50.966;7.094;2023-03-31T15:17:47;22.80;40.50
11989;DHT22;6054;50.966;7.094;2023-03-31T15:20:25;22.80;40.30
11989;DHT22;6054;50.966;7.094;2023-03-31T15:22:53;22.80;40.90
11989;DHT22;6054;50.966;7.094;2023-03-31T15:25:21;22.90;41.10
11989;DHT22;6054;50.966;7.094;2023-03-31T15:27:52;23.00;40.80
11989;DHT22;6054;50.966;7.094;2023-03-31T15:30:22;22.70;40.40
11989;DHT22;6054;50.966;7.094;2023-03-31T15:32:49;22.70;40.20
11989;DHT22;6054;50.966;7.094;2023-03-31T15:35:20;22.60;39.80
11989;DHT22;6054;50.966;7.094;2023-03-31T15:37:49;22.60;39.80
11989;DHT22;6054;50.966;7.094;2023-03-31T15:40:19;22.50;39.30
11989;DHT22;6054;50.966;7.094;2023-03-31T15:42:47;22.50;39.80
11989;DHT22;6054;50.966;7.094;2023-03-31T15:45:36;22.40;40.20
11989;DHT22;6054;50.966;7.094;2023-03-31T15:48:04;22.40;40.50
11989;DHT22;6054;50.966;7.094;2023-03-31T15:50:32;22.40;40.60
11989;DHT22;6054;50.966;7.094;2023-03-31T15:52:59;22.40;41.20
11989;DHT22;6054;50.966;7.094;2023-03-31T15:55:29;22.20;41.10
11989;DHT22;6054;50.966;7.094;2023-03-31T15:57:58;22.20;41.30
11989;DHT22;6054;50.966;7.094;2023-03-31T16:00:44;22.20;42.20
11989;DHT22;6054;50.966;7.094;2023-03-31T16:03:15;22.00;43.00
11989;DHT22;6054;50.966;7.094;2023-03-31T16:05:49;21.90;45.50
11989;DHT22;6054;50.966;7.094;2023-03-31T16:08:21;21.70;46.80
11989;DHT22;6054;50.966;7.094;2023-03-31T16:10:55;21.50;47.50
11989;DHT22;6054;50.966;7.094;2023-03-31T16:13:22;21.50;49.00
11989;DHT22;6054;50.966;7.094;2023-03-31T16:15:53;21.00;48.90
11989;DHT22;6054;50.966;7.094;2023-03-31T16:18:26;20.90;50.10
11989;DHT22;6054;50.966;7.094;2023-03-31T16:20:57;20.70;50.60
11989;DHT22;6054;50.966;7.094;2023-03-31T16:23:28;20.60;51.20
11989;DHT22;6054;50.966;7.094;2023-03-31T16:25:55;20.50;52.00
11989;DHT22;6054;50.966;7.094;2023-03-31T16:28:24;20.50;52.30
11989;DHT22;6054;50.966;7.094;2023-03-31T16:30:53;20.50;53.20